Time;durP1;ratioP1;P1;durP2;ratioP2;P2;SDS_P1;SDS_P2;PMS_P1;PMS_P2;Temp;Humidity;BMP_temperature;BMP_pressure;BME280_temperature;BME280_humidity;BME280_pressure;Samples;Min_cycle;Max_cycle;Signal;HPM_P1;HPM_P2
2024/03/20 00:02:20;;;;;;;4.15;3.67;;;;;;;;;;5045933;28;20534;-88
2024/03/20 00:04:46;;;;;;;9.93;4.63;;;;;;;;;;5063882;28;20646;-88
2024/03/20 00:07:12;;;;;;;7.53;4.00;;;;;;;;;;5056832;28;20181;-87
2024/03/20 00:09:38;;;;;;;6.35;4.28;;;;;;;;;;5042773;28;20512;-88
2024/03/20 00:12:06;;;;;;;4.70;4.00;;;;;;;;;;5060929;28;20236;-88
2024/03/20 00:14:32;;;;;;;5.22;3.78;;;;;;;;;;5066848;28;20335;-88
2024/03/20 00:16:58;;;;;;;12.45;3.85;;;;;;;;;;5062293;28;20189;-86
2024/03/20 00:19:25;;;;;;;7.90;4.70;;;;;;;;;;5044518;28;20241;-88
2024/03/20 00:21:51;;;;;;;6.88;3.65;;;;;;;;;;5051271;28;20181;-87
2024/03/20 00:24:17;;;;;;;6.83;3.97;;;;;;;;;;5051712;28;20553;-87
2024/03/20 00:26:43;;;;;;;6.90;4.13;;;;;;;;;;5045927;28;20439;-87
2024/03/20 00:29:09;;;;;;;5.10;4.20;;;;;;;;;;5044283;28;20436;-87
2024/03/20 00:31:35;;;;;;;5.60;4.25;;;;;;;;;;5060944;28;20202;-88
2024/03/20 00:34:02;;;;;;;6.50;3.72;;;;;;;;;;5044499;28;20188;-87
2024/03/20 00:36:28;;;;;;;5.57;4.00;;;;;;;;;;5064398;28;20229;-87
2024/03/20 00:38:54;;;;;;;5.65;3.25;;;;;;;;;;5064723;28;20784;-87
2024/03/20 00:41:20;;;;;;;9.20;3.80;;;;;;;;;;5067224;28;20621;-88
2024/03/20 00:43:46;;;;;;;9.47;4.17;;;;;;;;;;5060386;28;20186;-88
2024/03/20 00:46:12;;;;;;;7.93;3.90;;;;;;;;;;5060889;28;20935;-87
2024/03/20 00:48:38;;;;;;;5.95;3.80;;;;;;;;;;5048836;28;20787;-88
2024/03/20 00:51:05;;;;;;;6.50;3.90;;;;;;;;;;5046745;28;20676;-87
2024/03/20 00:53:31;;;;;;;8.32;3.90;;;;;;;;;;5050390;28;20232;-87
2024/03/20 00:55:57;;;;;;;9.27;3.78;;;;;;;;;;5040764;28;20645;-87
2024/03/20 00:58:23;;;;;;;4.85;3.40;;;;;;;;;;5048877;28;20561;-88
2024/03/20 01:00:49;;;;;;;7.07;5.00;;;;;;;;;;5069031;28;20217;-87
2024/03/20 01:03:15;;;;;;;6.23;4.40;;;;;;;;;;5046170;28;20205;-87
2024/03/20 01:05:41;;;;;;;5.30;3.37;;;;;;;;;;5047811;28;20428;-87
2024/03/20 01:08:07;;;;;;;7.72;4.10;;;;;;;;;;5045140;28;20436;-88
2024/03/20 01:10:33;;;;;;;4.90;3.88;;;;;;;;;;5063779;28;20928;-88
2024/03/20 01:12:59;;;;;;;5.90;4.07;;;;;;;;;;5058719;28;20182;-88
2024/03/20 01:15:25;;;;;;;5.13;4.57;;;;;;;;;;5048391;28;20424;-88
2024/03/20 01:17:51;;;;;;;5.63;3.75;;;;;;;;;;5043670;28;20440;-88
2024/03/20 01:20:17;;;;;;;7.70;4.90;;;;;;;;;;5049765;28;20681;-87
2024/03/20 01:22:43;;;;;;;4.07;3.17;;;;;;;;;;5047797;28;20420;-87
2024/03/20 01:25:09;;;;;;;7.13;4.47;;;;;;;;;;5065614;28;20641;-87
2024/03/20 01:27:35;;;;;;;4.60;3.60;;;;;;;;;;5043273;28;20970;-88
2024/03/20 01:30:02;;;;;;;8.73;4.10;;;;;;;;;;5064663;28;20251;-88
2024/03/20 01:32:28;;;;;;;7.15;3.90;;;;;;;;;;5043973;28;20259;-88
2024/03/20 01:34:54;;;;;;;6.87;4.57;;;;;;;;;;5049198;28;20637;-87
2024/03/20 01:37:20;;;;;;;8.48;4.00;;;;;;;;;;5048262;28;20475;-86
2024/03/20 01:39:46;;;;;;;5.05;3.35;;;;;;;;;;5050341;28;20209;-87
2024/03/20 01:42:12;;;;;;;7.90;3.90;;;;;;;;;;5051597;28;20189;-87
2024/03/20 01:44:38;;;;;;;7.63;3.95;;;;;;;;;;5062945;28;20900;-88
2024/03/20 01:47:04;;;;;;;5.47;3.50;;;;;;;;;;5040810;28;20232;-87
2024/03/20 01:49:30;;;;;;;6.55;4.38;;;;;;;;;;5047711;28;20435;-88
2024/03/20 01:51:58;;;;;;;3.90;3.10;;;;;;;;;;5062745;28;20197;-88
2024/03/20 01:54:24;;;;;;;7.75;4.18;;;;;;;;;;5037327;28;20174;-87
2024/03/20 01:56:50;;;;;;;6.20;4.30;;;;;;;;;;5062901;28;20235;-88
2024/03/20 01:59:16;;;;;;;6.60;4.10;;;;;;;;;;5067166;28;20773;-85
2024/03/20 02:01:42;;;;;;;9.60;4.40;;;;;;;;;;5046845;28;20193;-87
2024/03/20 02:04:08;;;;;;;9.23;3.80;;;;;;;;;;5051857;28;20192;-88
2024/03/20 02:06:34;;;;;;;6.47;4.10;;;;;;;;;;5056580;28;20438;-88
2024/03/20 02:09:00;;;;;;;5.97;3.83;;;;;;;;;;5058416;28;20832;-88
2024/03/20 02:11:27;;;;;;;5.90;3.70;;;;;;;;;;5065443;28;20204;-86
2024/03/20 02:13:54;;;;;;;6.93;4.15;;;;;;;;;;5034371;28;20188;-87
2024/03/20 02:16:21;;;;;;;6.10;3.70;;;;;;;;;;5060109;28;20236;-87
2024/03/20 02:18:49;;;;;;;7.70;4.00;;;;;;;;;;5047355;28;20205;-87
2024/03/20 02:21:19;;;;;;;4.20;3.80;;;;;;;;;;5056581;28;20556;-87
2024/03/20 02:23:46;;;;;;;5.70;3.40;;;;;;;;;;5048184;28;20200;-87
2024/03/20 02:26:12;;;;;;;5.07;3.60;;;;;;;;;;5050372;28;20189;-86
2024/03/20 02:28:39;;;;;;;5.85;3.53;;;;;;;;;;5061614;28;20185;-87
2024/03/20 02:31:09;;;;;;;5.53;4.07;;;;;;;;;;5047437;28;20181;-86
2024/03/20 02:33:35;;;;;;;6.78;4.40;;;;;;;;;;5062152;28;20181;-87
2024/03/20 02:36:02;;;;;;;5.82;3.95;;;;;;;;;;5056680;28;20182;-87
2024/03/20 02:38:30;;;;;;;4.32;3.60;;;;;;;;;;5050202;28;20268;-87
2024/03/20 02:40:56;;;;;;;4.70;3.75;;;;;;;;;;5044861;28;20204;-87
2024/03/20 02:43:22;;;;;;;7.30;3.95;;;;;;;;;;5045985;28;20184;-87
2024/03/20 02:45:48;;;;;;;9.82;4.50;;;;;;;;;;5041527;28;20177;-87
2024/03/20 02:48:14;;;;;;;6.80;3.80;;;;;;;;;;5039137;28;20232;-86
2024/03/20 02:50:41;;;;;;;10.80;3.70;;;;;;;;;;5067693;28;20423;-87
2024/03/20 02:53:07;;;;;;;4.82;3.63;;;;;;;;;;5042307;28;20178;-87
2024/03/20 02:55:33;;;;;;;6.90;4.80;;;;;;;;;;5067151;28;20185;-87
2024/03/20 02:57:59;;;;;;;4.78;4.20;;;;;;;;;;5061233;28;20186;-86
2024/03/20 03:00:26;;;;;;;7.07;4.03;;;;;;;;;;5046368;28;20206;-87
2024/03/20 03:02:53;;;;;;;6.95;4.32;;;;;;;;;;5045921;28;20215;-87
2024/03/20 03:05:20;;;;;;;7.18;4.32;;;;;;;;;;5065264;28;20182;-87
2024/03/20 03:07:47;;;;;;;5.05;3.78;;;;;;;;;;5053448;28;20189;-87
2024/03/20 03:10:14;;;;;;;5.47;4.07;;;;;;;;;;5062648;28;20555;-87
2024/03/20 03:12:40;;;;;;;8.05;3.92;;;;;;;;;;5046318;28;20184;-86
2024/03/20 03:15:06;;;;;;;5.72;3.75;;;;;;;;;;5063074;28;20276;-87
2024/03/20 03:17:32;;;;;;;5.13;4.03;;;;;;;;;;5058268;28;20186;-88
2024/03/20 03:19:58;;;;;;;4.93;3.50;;;;;;;;;;5064428;28;20225;-88
2024/03/20 03:22:24;;;;;;;6.40;3.30;;;;;;;;;;5065362;28;20456;-87
2024/03/20 03:24:50;;;;;;;3.70;3.33;;;;;;;;;;5054750;28;20412;-85
2024/03/20 03:27:16;;;;;;;9.13;4.00;;;;;;;;;;5048956;28;20511;-87
2024/03/20 03:29:42;;;;;;;3.72;3.25;;;;;;;;;;5060714;28;20466;-87
2024/03/20 03:32:08;;;;;;;4.83;3.70;;;;;;;;;;5054614;28;20187;-87
2024/03/20 03:34:34;;;;;;;8.75;3.85;;;;;;;;;;5057904;28;20519;-87
2024/03/20 03:37:00;;;;;;;5.03;3.57;;;;;;;;;;5046298;28;20268;-87
2024/03/20 03:39:26;;;;;;;4.90;3.10;;;;;;;;;;5051247;28;20521;-87
2024/03/20 03:41:52;;;;;;;6.13;3.70;;;;;;;;;;5046853;28;20190;-87
2024/03/20 03:44:18;;;;;;;5.00;3.43;;;;;;;;;;5046976;28;20437;-87
2024/03/20 03:46:44;;;;;;;7.45;4.45;;;;;;;;;;5046990;28;20521;-87
2024/03/20 03:49:10;;;;;;;8.50;4.57;;;;;;;;;;5050052;28;20200;-87
2024/03/20 03:51:36;;;;;;;8.53;4.00;;;;;;;;;;5053455;28;20431;-88
2024/03/20 03:54:03;;;;;;;7.37;4.17;;;;;;;;;;5055642;28;20462;-84
2024/03/20 03:56:29;;;;;;;4.97;3.60;;;;;;;;;;5063127;28;20519;-88
2024/03/20 03:58:55;;;;;;;4.80;3.53;;;;;;;;;;5059205;28;20300;-86
2024/03/20 04:01:21;;;;;;;7.73;3.60;;;;;;;;;;5042578;28;20275;-87
2024/03/20 04:03:47;;;;;;;8.48;3.83;;;;;;;;;;5051651;28;20404;-88
2024/03/20 04:06:13;;;;;;;4.65;4.18;;;;;;;;;;5044337;28;20197;-87
2024/03/20 04:08:39;;;;;;;6.75;3.75;;;;;;;;;;5048239;28;20208;-86
2024/03/20 04:11:05;;;;;;;8.48;3.78;;;;;;;;;;5062460;28;20194;-88
2024/03/20 04:13:32;;;;;;;7.43;3.55;;;;;;;;;;5066074;28;20178;-87
2024/03/20 04:15:58;;;;;;;4.22;3.40;;;;;;;;;;5066313;28;20598;-87
2024/03/20 04:18:24;;;;;;;4.27;3.80;;;;;;;;;;5069274;28;20205;-87
2024/03/20 04:20:50;;;;;;;5.22;3.90;;;;;;;;;;5066326;28;20485;-84
2024/03/20 04:23:16;;;;;;;5.40;4.88;;;;;;;;;;5066182;28;20169;-87
2024/03/20 04:25:42;;;;;;;8.90;5.03;;;;;;;;;;5066575;28;20698;-87
2024/03/20 04:28:09;;;;;;;9.13;5.05;;;;;;;;;;5050056;28;20173;-87
2024/03/20 04:30:35;;;;;;;5.80;3.80;;;;;;;;;;5041249;28;20561;-86
2024/03/20 04:33:01;;;;;;;8.52;4.22;;;;;;;;;;5060219;28;20279;-87
2024/03/20 04:35:27;;;;;;;7.07;4.70;;;;;;;;;;5062796;28;20205;-87
2024/03/20 04:37:53;;;;;;;5.97;4.43;;;;;;;;;;5064448;28;20803;-87
2024/03/20 04:40:19;;;;;;;7.53;4.00;;;;;;;;;;5041366;28;20466;-87
2024/03/20 04:42:45;;;;;;;8.00;4.77;;;;;;;;;;5065579;28;20225;-87
2024/03/20 04:45:12;;;;;;;10.00;4.27;;;;;;;;;;5066423;28;20573;-87
2024/03/20 04:47:38;;;;;;;7.18;4.93;;;;;;;;;;5056261;28;20582;-87
2024/03/20 04:50:06;;;;;;;8.82;4.40;;;;;;;;;;5039146;28;20186;-88
2024/03/20 04:52:32;;;;;;;7.50;4.70;;;;;;;;;;5067694;28;20618;-88
2024/03/20 04:54:58;;;;;;;8.60;4.50;;;;;;;;;;5063741;28;20185;-88
2024/03/20 04:57:24;;;;;;;5.40;4.18;;;;;;;;;;5042221;28;20946;-87
2024/03/20 04:59:50;;;;;;;6.05;4.55;;;;;;;;;;5048514;28;20213;-88
2024/03/20 05:02:16;;;;;;;12.75;4.50;;;;;;;;;;5060856;28;20186;-87
2024/03/20 05:04:42;;;;;;;12.80;5.50;;;;;;;;;;5047118;28;20594;-87
2024/03/20 05:07:08;;;;;;;6.70;4.40;;;;;;;;;;5059142;28;20420;-87
2024/03/20 05:09:34;;;;;;;5.18;4.68;;;;;;;;;;5058792;28;20190;-87
2024/03/20 05:12:00;;;;;;;6.13;4.82;;;;;;;;;;5049180;28;20181;-88
2024/03/20 05:14:26;;;;;;;7.45;4.10;;;;;;;;;;5048951;28;20185;-87
2024/03/20 05:16:53;;;;;;;15.13;5.03;;;;;;;;;;5043570;28;20185;-87
2024/03/20 05:19:19;;;;;;;10.93;5.20;;;;;;;;;;5065424;28;20209;-87
2024/03/20 05:21:44;;;;;;;9.57;5.07;;;;;;;;;;5057543;28;20539;-87
2024/03/20 05:24:10;;;;;;;7.40;5.03;;;;;;;;;;5062268;28;20417;-87
2024/03/20 05:26:36;;;;;;;9.40;5.63;;;;;;;;;;5063082;28;20991;-87
2024/03/20 05:29:02;;;;;;;9.90;5.53;;;;;;;;;;5045688;28;20816;-87
2024/03/20 05:31:30;;;;;;;9.32;4.65;;;;;;;;;;5044228;28;20420;-87
2024/03/20 05:33:56;;;;;;;6.60;5.00;;;;;;;;;;5048272;28;20173;-87
2024/03/20 05:36:22;;;;;;;6.63;5.13;;;;;;;;;;5045958;28;20216;-87
2024/03/20 05:38:48;;;;;;;10.35;5.25;;;;;;;;;;5061940;28;20246;-88
2024/03/20 05:41:14;;;;;;;6.38;5.10;;;;;;;;;;5061193;28;20186;-86
2024/03/20 05:43:41;;;;;;;8.57;4.13;;;;;;;;;;5055422;28;20187;-88
2024/03/20 05:46:09;;;;;;;9.77;5.20;;;;;;;;;;5042642;28;20284;-86
2024/03/20 05:48:35;;;;;;;8.77;4.70;;;;;;;;;;5045716;28;20177;-88
2024/03/20 05:51:01;;;;;;;6.87;4.83;;;;;;;;;;5064307;28;20239;-87
2024/03/20 05:53:27;;;;;;;6.23;4.50;;;;;;;;;;5045787;28;20415;-87
2024/03/20 05:55:54;;;;;;;6.87;5.33;;;;;;;;;;5047931;28;20467;-87
2024/03/20 05:58:20;;;;;;;6.85;4.75;;;;;;;;;;5062911;28;20808;-87
2024/03/20 06:00:46;;;;;;;9.63;5.15;;;;;;;;;;5059162;28;20292;-87
2024/03/20 06:03:12;;;;;;;6.18;4.60;;;;;;;;;;5056349;28;20806;-87
2024/03/20 06:05:38;;;;;;;5.70;4.97;;;;;;;;;;5060318;28;20272;-87
2024/03/20 06:08:04;;;;;;;12.53;4.83;;;;;;;;;;5057860;28;20463;-88
2024/03/20 06:10:30;;;;;;;8.75;4.65;;;;;;;;;;5048629;28;20426;-87
2024/03/20 06:12:56;;;;;;;8.00;4.60;;;;;;;;;;5049323;28;20311;-88
2024/03/20 06:15:22;;;;;;;8.13;5.00;;;;;;;;;;5052213;28;20897;-87
2024/03/20 06:17:48;;;;;;;10.63;4.70;;;;;;;;;;5044661;28;20420;-87
2024/03/20 06:20:15;;;;;;;7.40;4.50;;;;;;;;;;5044192;28;20637;-86
2024/03/20 06:22:41;;;;;;;7.28;4.38;;;;;;;;;;5058940;28;20836;-87
2024/03/20 06:25:07;;;;;;;11.63;4.30;;;;;;;;;;5067103;28;20698;-87
2024/03/20 06:27:36;;;;;;;4.50;3.95;;;;;;;;;;5046870;28;20268;-88
2024/03/20 06:30:27;;;;;;;7.55;4.50;;;;;;;;;;5046015;28;20200;-88
2024/03/20 06:32:53;;;;;;;9.20;4.13;;;;;;;;;;5048708;28;20194;-86
2024/03/20 06:35:19;;;;;;;5.50;4.80;;;;;;;;;;5034244;28;20682;-87
2024/03/20 06:37:45;;;;;;;5.47;4.57;;;;;;;;;;5041660;28;20641;-87
2024/03/20 06:40:11;;;;;;;8.03;5.20;;;;;;;;;;5041072;28;20308;-88
2024/03/20 06:42:38;;;;;;;8.43;5.60;;;;;;;;;;5040779;28;20424;-89
2024/03/20 06:45:05;;;;;;;6.30;4.32;;;;;;;;;;5047027;28;20185;-88
2024/03/20 06:47:31;;;;;;;8.02;4.38;;;;;;;;;;5058167;28;20321;-88
2024/03/20 06:49:57;;;;;;;10.40;5.15;;;;;;;;;;5065078;28;20696;-88
2024/03/20 06:52:23;;;;;;;4.93;4.20;;;;;;;;;;5044522;28;20591;-88
2024/03/20 06:54:50;;;;;;;6.57;4.82;;;;;;;;;;5059057;28;20189;-88
2024/03/20 06:57:17;;;;;;;7.90;4.90;;;;;;;;;;5047445;28;20684;-88
2024/03/20 06:59:46;;;;;;;8.52;5.03;;;;;;;;;;5069202;28;20209;-88
2024/03/20 07:02:13;;;;;;;9.38;4.40;;;;;;;;;;5059869;28;20177;-88
2024/03/20 07:04:39;;;;;;;10.27;4.90;;;;;;;;;;5046390;28;20217;-88
2024/03/20 07:07:05;;;;;;;8.98;4.38;;;;;;;;;;5044587;28;20174;-88
2024/03/20 07:09:31;;;;;;;8.73;4.47;;;;;;;;;;5048916;28;20182;-88
2024/03/20 07:11:58;;;;;;;11.32;3.92;;;;;;;;;;5049049;28;20256;-87
2024/03/20 07:14:26;;;;;;;5.57;3.92;;;;;;;;;;5069946;28;20186;-89
2024/03/20 07:16:52;;;;;;;9.35;4.82;;;;;;;;;;5067317;28;20217;-88
2024/03/20 07:19:18;;;;;;;10.90;4.70;;;;;;;;;;5046175;28;20230;-88
2024/03/20 07:21:44;;;;;;;6.53;3.90;;;;;;;;;;5050998;28;20181;-88
2024/03/20 07:24:10;;;;;;;7.80;4.17;;;;;;;;;;5048404;28;20519;-89
2024/03/20 07:26:37;;;;;;;5.18;3.97;;;;;;;;;;5048099;28;20432;-88
2024/03/20 07:29:07;;;;;;;8.48;4.32;;;;;;;;;;5060639;28;20213;-88
2024/03/20 07:31:33;;;;;;;4.97;3.80;;;;;;;;;;5061361;28;20173;-88
2024/03/20 07:33:59;;;;;;;7.72;3.65;;;;;;;;;;5065004;28;20791;-87
2024/03/20 07:36:26;;;;;;;5.63;3.53;;;;;;;;;;5062690;28;20243;-89
2024/03/20 07:38:52;;;;;;;6.13;3.85;;;;;;;;;;5064851;28;20966;-90
2024/03/20 07:41:18;;;;;;;6.67;3.00;;;;;;;;;;5064305;28;20277;-91
2024/03/20 07:43:45;;;;;;;4.60;3.43;;;;;;;;;;5060366;28;20485;-90
2024/03/20 07:46:13;;;;;;;5.93;3.95;;;;;;;;;;5066587;28;20588;-91
2024/03/20 07:48:39;;;;;;;4.28;3.03;;;;;;;;;;5060265;28;20174;-87
2024/03/20 07:51:06;;;;;;;6.80;3.05;;;;;;;;;;5064212;28;20512;-89
2024/03/20 07:53:32;;;;;;;5.15;3.55;;;;;;;;;;5046793;28;20182;-90
2024/03/20 07:55:58;;;;;;;4.90;2.77;;;;;;;;;;5065555;28;20217;-90
2024/03/20 07:58:24;;;;;;;3.63;2.60;;;;;;;;;;5069725;28;20795;-90
2024/03/20 08:00:53;;;;;;;6.93;3.63;;;;;;;;;;5044250;28;20575;-88
2024/03/20 08:03:19;;;;;;;5.65;3.70;;;;;;;;;;5063362;28;20416;-91
2024/03/20 08:05:45;;;;;;;3.28;2.83;;;;;;;;;;5050797;28;20238;-90
2024/03/20 08:08:11;;;;;;;7.50;3.60;;;;;;;;;;5048787;28;20258;-89
2024/03/20 08:10:37;;;;;;;5.20;2.87;;;;;;;;;;5052857;28;20477;-89
2024/03/20 08:13:03;;;;;;;7.17;3.90;;;;;;;;;;5040883;28;20846;-90
2024/03/20 08:15:29;;;;;;;6.60;3.23;;;;;;;;;;5052230;28;20433;-88
2024/03/20 08:17:55;;;;;;;7.07;3.60;;;;;;;;;;5062598;28;20428;-90
2024/03/20 08:20:23;;;;;;;5.73;3.20;;;;;;;;;;5060938;28;20567;-90
2024/03/20 08:22:49;;;;;;;4.53;3.17;;;;;;;;;;5052347;28;20436;-89
2024/03/20 08:25:15;;;;;;;9.63;3.40;;;;;;;;;;5051896;28;20884;-87
2024/03/20 08:27:41;;;;;;;5.53;3.37;;;;;;;;;;5047827;28;20481;-84
2024/03/20 08:30:07;;;;;;;4.50;3.30;;;;;;;;;;5051557;28;20415;-90
2024/03/20 08:32:34;;;;;;;6.97;4.20;;;;;;;;;;5068364;28;20524;-87
2024/03/20 08:35:01;;;;;;;10.47;4.10;;;;;;;;;;5055739;28;20436;-88
2024/03/20 08:37:27;;;;;;;4.30;3.10;;;;;;;;;;5066833;28;20431;-87
2024/03/20 08:39:53;;;;;;;8.90;3.63;;;;;;;;;;5045179;28;20997;-86
2024/03/20 08:42:19;;;;;;;6.20;3.90;;;;;;;;;;5047535;28;20433;-88
2024/03/20 08:44:45;;;;;;;6.93;3.53;;;;;;;;;;5051042;28;20951;-89
2024/03/20 08:47:11;;;;;;;5.60;3.30;;;;;;;;;;5057130;28;20544;-88
2024/03/20 08:49:38;;;;;;;6.43;2.87;;;;;;;;;;5061824;28;20428;-87
2024/03/20 08:52:07;;;;;;;10.47;3.50;;;;;;;;;;5046087;28;20446;-83
2024/03/20 08:54:34;;;;;;;6.10;3.20;;;;;;;;;;5069734;28;20428;-82
2024/03/20 08:57:01;;;;;;;4.73;2.93;;;;;;;;;;5047035;28;20420;-84
2024/03/20 08:59:27;;;;;;;5.93;2.97;;;;;;;;;;5045157;28;20468;-82
2024/03/20 09:01:53;;;;;;;6.30;3.13;;;;;;;;;;5062647;28;20437;-84
2024/03/20 09:04:19;;;;;;;6.97;2.97;;;;;;;;;;5061556;28;20434;-84
2024/03/20 09:06:45;;;;;;;3.60;2.63;;;;;;;;;;5065053;28;20487;-85
2024/03/20 09:09:10;;;;;;;6.97;3.43;;;;;;;;;;5050331;28;20428;-85
2024/03/20 09:11:36;;;;;;;6.20;4.17;;;;;;;;;;5048712;28;20996;-84
2024/03/20 09:14:03;;;;;;;7.63;5.17;;;;;;;;;;5060700;28;20387;-84
2024/03/20 09:16:29;;;;;;;8.30;3.17;;;;;;;;;;5044652;28;20415;-83
2024/03/20 09:18:55;;;;;;;6.77;3.00;;;;;;;;;;5047384;28;20425;-83
2024/03/20 09:21:22;;;;;;;3.37;2.47;;;;;;;;;;5047458;28;20528;-84
2024/03/20 09:23:48;;;;;;;3.47;2.40;;;;;;;;;;5064011;28;20904;-85
2024/03/20 09:26:14;;;;;;;3.83;2.40;;;;;;;;;;5061500;28;20435;-87
2024/03/20 09:28:39;;;;;;;2.97;2.67;;;;;;;;;;5054728;28;20498;-85
2024/03/20 09:31:05;;;;;;;4.20;2.83;;;;;;;;;;5060196;28;20460;-86
2024/03/20 09:33:31;;;;;;;6.57;2.87;;;;;;;;;;5057913;28;20896;-86
2024/03/20 09:35:57;;;;;;;4.30;2.30;;;;;;;;;;5057546;28;20521;-86
2024/03/20 09:38:24;;;;;;;3.63;2.63;;;;;;;;;;5047812;28;20424;-86
2024/03/20 09:40:50;;;;;;;4.37;2.20;;;;;;;;;;5065759;28;20450;-86
2024/03/20 09:43:18;;;;;;;7.17;2.70;;;;;;;;;;5044677;28;20576;-86
2024/03/20 09:45:44;;;;;;;6.07;2.10;;;;;;;;;;5067105;28;20461;-86
2024/03/20 09:48:11;;;;;;;4.00;2.60;;;;;;;;;;5067381;28;20977;-85
2024/03/20 09:50:38;;;;;;;3.50;2.00;;;;;;;;;;5061431;28;20830;-85
2024/03/20 09:53:05;;;;;;;2.93;1.87;;;;;;;;;;5058938;28;20445;-85
2024/03/20 09:55:32;;;;;;;2.90;2.30;;;;;;;;;;5049143;28;20452;-83
2024/03/20 09:57:58;;;;;;;4.50;2.90;;;;;;;;;;5045968;28;20802;-85
2024/03/20 10:00:25;;;;;;;2.70;2.20;;;;;;;;;;5044319;28;20464;-85
2024/03/20 10:02:52;;;;;;;8.17;2.30;;;;;;;;;;5061885;28;20432;-86
2024/03/20 10:05:18;;;;;;;3.03;2.03;;;;;;;;;;5043694;28;20428;-84
2024/03/20 10:07:45;;;;;;;5.17;2.00;;;;;;;;;;5048163;28;20757;-86
2024/03/20 10:10:13;;;;;;;5.57;2.13;;;;;;;;;;5062877;28;20534;-84
2024/03/20 10:12:39;;;;;;;3.87;1.80;;;;;;;;;;5044217;28;20870;-84
2024/03/20 10:15:07;;;;;;;5.40;2.00;;;;;;;;;;5059665;28;20520;-83
2024/03/20 10:17:34;;;;;;;5.27;2.27;;;;;;;;;;5047909;28;21009;-84
2024/03/20 10:20:01;;;;;;;5.10;2.10;;;;;;;;;;5044614;28;20504;-85
2024/03/20 10:22:27;;;;;;;4.10;2.10;;;;;;;;;;5043177;28;20515;-85
2024/03/20 10:24:53;;;;;;;3.70;2.20;;;;;;;;;;5042937;28;20446;-85
2024/03/20 10:27:20;;;;;;;4.73;1.80;;;;;;;;;;5043998;28;20420;-84
2024/03/20 10:29:47;;;;;;;3.50;2.40;;;;;;;;;;5053231;28;20867;-84
2024/03/20 10:32:14;;;;;;;4.00;2.00;;;;;;;;;;5048058;28;20432;-84
2024/03/20 10:34:42;;;;;;;3.57;2.07;;;;;;;;;;5051036;28;20427;-85
2024/03/20 10:37:08;;;;;;;3.90;2.47;;;;;;;;;;5045229;28;20420;-83
2024/03/20 10:39:36;;;;;;;3.90;1.70;;;;;;;;;;5068630;28;20482;-84
2024/03/20 10:42:05;;;;;;;3.90;1.53;;;;;;;;;;5044401;28;20421;-84
2024/03/20 10:44:33;;;;;;;3.53;1.83;;;;;;;;;;5048529;28;20423;-85
2024/03/20 10:46:59;;;;;;;2.53;1.70;;;;;;;;;;5051314;28;20483;-85
2024/03/20 10:49:26;;;;;;;4.37;2.10;;;;;;;;;;5067061;28;20427;-85
2024/03/20 10:51:54;;;;;;;2.83;1.70;;;;;;;;;;5048570;28;20415;-85
2024/03/20 10:54:20;;;;;;;2.90;1.97;;;;;;;;;;5050891;28;20425;-85
2024/03/20 10:56:50;;;;;;;3.83;1.57;;;;;;;;;;5046048;28;20436;-85
2024/03/20 10:59:18;;;;;;;4.20;2.00;;;;;;;;;;5053024;28;20866;-84
2024/03/20 11:01:57;;;;;;;2.60;1.80;;;;;;;;;;5048776;28;20420;-85
2024/03/20 11:04:36;;;;;;;4.50;2.00;;;;;;;;;;5045599;28;20519;-85
2024/03/20 11:07:28;;;;;;;4.90;1.90;;;;;;;;;;5049930;28;20485;-85
2024/03/20 11:09:54;;;;;;;4.70;2.30;;;;;;;;;;5047778;28;20432;-84
2024/03/20 11:12:32;;;;;;;4.43;1.47;;;;;;;;;;5049878;28;20399;-85
2024/03/20 11:14:58;;;;;;;2.53;1.80;;;;;;;;;;5070053;28;20484;-83
2024/03/20 11:17:26;;;;;;;5.67;2.40;;;;;;;;;;5049386;28;20417;-85
2024/03/20 11:19:52;;;;;;;5.00;1.87;;;;;;;;;;5048175;28;20792;-85
2024/03/20 11:22:20;;;;;;;1.90;1.47;;;;;;;;;;5059811;28;20994;-85
2024/03/20 11:24:46;;;;;;;3.40;1.87;;;;;;;;;;5046074;28;20467;-85
2024/03/20 11:27:12;;;;;;;3.20;1.40;;;;;;;;;;5047376;28;20416;-85
2024/03/20 11:29:38;;;;;;;2.80;1.60;;;;;;;;;;5043836;28;20411;-86
2024/03/20 11:32:04;;;;;;;3.33;1.47;;;;;;;;;;5044353;28;20920;-84
2024/03/20 11:34:32;;;;;;;4.17;1.83;;;;;;;;;;5054572;28;20412;-86
2024/03/20 11:37:00;;;;;;;3.43;1.87;;;;;;;;;;5048518;28;20432;-87
2024/03/20 11:39:26;;;;;;;3.47;1.80;;;;;;;;;;5045421;28;20464;-85
2024/03/20 11:41:51;;;;;;;2.10;1.33;;;;;;;;;;5047016;28;20939;-84
2024/03/20 11:44:18;;;;;;;4.13;1.73;;;;;;;;;;5050355;28;20438;-86
2024/03/20 11:46:44;;;;;;;3.33;1.57;;;;;;;;;;5064581;28;20806;-86
2024/03/20 11:49:10;;;;;;;2.87;1.20;;;;;;;;;;5051073;28;20443;-86
2024/03/20 11:51:38;;;;;;;9.50;2.40;;;;;;;;;;5066352;28;20502;-86
2024/03/20 11:54:04;;;;;;;9.40;2.37;;;;;;;;;;5050860;28;20427;-86
2024/03/20 11:56:31;;;;;;;3.80;1.30;;;;;;;;;;5048939;28;20453;-86
2024/03/20 11:58:57;;;;;;;4.57;1.67;;;;;;;;;;5051323;28;20494;-86
2024/03/20 12:01:23;;;;;;;2.37;1.60;;;;;;;;;;5046071;28;20511;-86
2024/03/20 12:03:52;;;;;;;4.80;1.80;;;;;;;;;;5048004;28;21867;-85
2024/03/20 12:06:25;;;;;;;1.87;1.30;;;;;;;;;;5044416;28;20496;-86
2024/03/20 12:08:52;;;;;;;2.00;1.20;;;;;;;;;;5049532;28;20491;-88
2024/03/20 12:11:23;;;;;;;4.03;1.87;;;;;;;;;;5048404;28;20412;-88
2024/03/20 12:13:53;;;;;;;3.00;1.23;;;;;;;;;;5051922;28;20408;-89
2024/03/20 12:16:22;;;;;;;5.93;1.80;;;;;;;;;;5046627;28;20793;-88
2024/03/20 12:18:48;;;;;;;3.73;1.30;;;;;;;;;;5058645;28;20421;-87
2024/03/20 12:21:16;;;;;;;1.47;1.30;;;;;;;;;;5055729;28;20835;-85
2024/03/20 12:23:45;;;;;;;1.13;1.03;;;;;;;;;;5044961;28;20897;-85
2024/03/20 12:26:11;;;;;;;2.40;1.03;;;;;;;;;;5043384;28;20436;-88
2024/03/20 12:28:37;;;;;;;1.40;1.20;;;;;;;;;;5046733;28;20429;-87
2024/03/20 12:31:04;;;;;;;4.20;1.73;;;;;;;;;;5055573;28;20429;-88
2024/03/20 12:33:30;;;;;;;3.43;1.43;;;;;;;;;;5063124;28;20427;-87
2024/03/20 12:35:56;;;;;;;4.07;1.27;;;;;;;;;;5046642;28;20431;-88
2024/03/20 12:38:22;;;;;;;2.63;1.20;;;;;;;;;;5048701;28;20424;-88
2024/03/20 12:40:48;;;;;;;2.40;1.10;;;;;;;;;;5060763;28;20960;-86
2024/03/20 12:43:14;;;;;;;2.13;1.10;;;;;;;;;;5051113;28;20477;-84
2024/03/20 12:45:41;;;;;;;3.57;1.10;;;;;;;;;;5043248;28;20526;-85
2024/03/20 12:48:12;;;;;;;2.77;1.40;;;;;;;;;;5045329;28;20448;-87
2024/03/20 12:50:44;;;;;;;3.37;1.33;;;;;;;;;;5049116;28;20412;-88
2024/03/20 12:53:15;;;;;;;1.50;1.33;;;;;;;;;;5057073;28;20539;-86
2024/03/20 12:55:42;;;;;;;1.57;1.00;;;;;;;;;;5064141;28;20420;-86
2024/03/20 12:58:10;;;;;;;2.10;1.20;;;;;;;;;;5043541;28;20413;-88
2024/03/20 13:00:37;;;;;;;2.93;1.17;;;;;;;;;;5061118;28;20471;-88
2024/03/20 13:03:04;;;;;;;3.53;1.03;;;;;;;;;;5043110;28;20483;-88
2024/03/20 13:05:30;;;;;;;3.13;1.10;;;;;;;;;;5047305;28;20420;-88
2024/03/20 13:07:56;;;;;;;2.20;1.30;;;;;;;;;;5045599;28;20420;-88
2024/03/20 13:10:23;;;;;;;4.40;1.60;;;;;;;;;;5050865;28;20428;-88
2024/03/20 13:12:49;;;;;;;4.90;1.00;;;;;;;;;;5047254;28;20432;-89
2024/03/20 13:15:16;;;;;;;2.70;1.07;;;;;;;;;;5042098;28;20416;-88
2024/03/20 13:17:42;;;;;;;1.73;1.23;;;;;;;;;;5045758;28;20424;-86
2024/03/20 13:20:10;;;;;;;2.60;1.33;;;;;;;;;;5042249;28;20544;-88
2024/03/20 13:22:42;;;;;;;2.70;1.10;;;;;;;;;;5043670;28;20463;-88
2024/03/20 13:25:11;;;;;;;2.17;1.50;;;;;;;;;;5044098;28;20415;-87
2024/03/20 13:27:37;;;;;;;1.50;0.97;;;;;;;;;;5044657;28;20793;-88
2024/03/20 13:30:04;;;;;;;3.97;1.60;;;;;;;;;;5046236;28;20428;-87
2024/03/20 13:32:41;;;;;;;2.97;1.23;;;;;;;;;;5037868;28;20437;-88
2024/03/20 13:35:11;;;;;;;2.90;1.20;;;;;;;;;;5044885;28;20978;-86
2024/03/20 13:37:39;;;;;;;3.10;1.03;;;;;;;;;;5044128;28;20503;-84
2024/03/20 13:43:18;;;;;;;4.13;1.37;;;;;;;;;;5046715;28;20394;-86
2024/03/20 13:45:55;;;;;;;3.33;1.20;;;;;;;;;;5045071;28;20822;-85
2024/03/20 13:48:21;;;;;;;3.37;1.50;;;;;;;;;;5049808;28;20431;-87
2024/03/20 13:50:50;;;;;;;4.03;1.30;;;;;;;;;;5059806;28;20424;-88
2024/03/20 13:53:16;;;;;;;2.10;1.13;;;;;;;;;;5058537;28;20437;-87
2024/03/20 13:55:42;;;;;;;2.27;1.27;;;;;;;;;;5046134;28;20436;-87
2024/03/20 13:58:08;;;;;;;3.17;1.20;;;;;;;;;;5057773;28;20421;-87
2024/03/20 14:00:34;;;;;;;3.67;1.40;;;;;;;;;;5044882;28;20509;-87
2024/03/20 14:03:02;;;;;;;4.00;1.37;;;;;;;;;;5060447;28;20485;-87
2024/03/20 14:05:28;;;;;;;2.50;1.27;;;;;;;;;;5059252;28;20424;-87
2024/03/20 14:07:54;;;;;;;2.70;1.20;;;;;;;;;;5052073;28;20404;-87
2024/03/20 14:10:20;;;;;;;2.33;1.40;;;;;;;;;;5042671;28;20431;-87
2024/03/20 14:12:46;;;;;;;2.67;1.40;;;;;;;;;;5060769;28;20440;-87
2024/03/20 14:15:17;;;;;;;2.80;1.00;;;;;;;;;;5042660;28;20450;-86
2024/03/20 14:17:43;;;;;;;2.60;1.27;;;;;;;;;;5044348;28;20436;-88
2024/03/20 14:20:15;;;;;;;3.13;1.40;;;;;;;;;;5057139;28;20525;-87
2024/03/20 14:22:41;;;;;;;1.57;1.20;;;;;;;;;;5052443;28;20432;-88
2024/03/20 14:25:14;;;;;;;3.30;1.30;;;;;;;;;;5043980;28;20822;-87
2024/03/20 14:27:39;;;;;;;1.57;1.13;;;;;;;;;;5038988;28;20423;-87
2024/03/20 14:30:06;;;;;;;3.73;1.03;;;;;;;;;;5050274;28;20426;-86
2024/03/20 14:32:32;;;;;;;1.83;1.40;;;;;;;;;;5047517;28;20435;-86
2024/03/20 14:34:58;;;;;;;1.40;1.30;;;;;;;;;;5042032;28;20428;-86
2024/03/20 14:37:24;;;;;;;1.80;1.10;;;;;;;;;;5041349;28;20537;-87
2024/03/20 14:39:50;;;;;;;2.70;1.30;;;;;;;;;;5048486;28;20554;-87
2024/03/20 14:42:16;;;;;;;1.97;1.20;;;;;;;;;;5044330;28;20430;-86
2024/03/20 14:44:43;;;;;;;3.23;1.57;;;;;;;;;;5042736;28;20431;-86